createdAt,value
2022-11-13T00:01:13.578Z,5.93
2022-11-13T00:03:41.840Z,7.30
2022-11-13T00:06:11.325Z,7.17
2022-11-13T00:08:39.604Z,7.30
2022-11-13T00:11:08.686Z,6.97
2022-11-13T00:13:37.299Z,6.40
2022-11-13T00:16:08.004Z,7.00
2022-11-13T00:18:36.839Z,7.30
2022-11-13T00:21:08.297Z,7.40
2022-11-13T00:23:37.171Z,7.70
2022-11-13T00:26:07.158Z,7.43
2022-11-13T00:28:35.369Z,6.10
2022-11-13T00:31:04.428Z,6.47
2022-11-13T00:36:26.047Z,8.13
2022-11-13T00:38:55.040Z,5.47
2022-11-13T00:41:23.368Z,6.70
2022-11-13T00:43:51.743Z,9.10
2022-11-13T00:46:20.211Z,8.00
2022-11-13T00:48:49.794Z,6.70
2022-11-13T00:51:19.481Z,6.60
2022-11-13T00:53:47.688Z,9.43
2022-11-13T00:56:17.140Z,4.97
2022-11-13T00:58:45.393Z,6.70
2022-11-13T01:01:14.962Z,6.47
2022-11-13T01:03:43.343Z,5.37
2022-11-13T01:06:14.168Z,7.40
2022-11-13T01:08:42.419Z,4.50
2022-11-13T01:11:11.696Z,12.70
2022-11-13T01:13:40.337Z,9.37
2022-11-13T01:16:09.511Z,6.27
2022-11-13T01:18:38.088Z,5.47
2022-11-13T01:21:06.981Z,7.13
2022-11-13T01:23:36.586Z,8.17
2022-11-13T01:26:09.270Z,7.17
2022-11-13T01:28:37.600Z,6.00
2022-11-13T01:31:08.847Z,5.23
2022-11-13T01:33:37.118Z,7.07
2022-11-13T01:36:06.700Z,6.90
2022-11-13T01:38:37.013Z,6.90
2022-11-13T01:41:07.647Z,5.40
2022-11-13T01:43:36.651Z,5.97
2022-11-13T01:46:08.475Z,5.00
2022-11-13T01:48:38.380Z,6.00
2022-11-13T01:51:09.077Z,3.90
2022-11-13T01:53:37.450Z,3.10
2022-11-13T01:56:08.132Z,6.97
2022-11-13T01:58:37.799Z,4.60
2022-11-13T02:01:06.044Z,4.33
2022-11-13T02:03:34.300Z,4.10
2022-11-13T02:06:02.668Z,4.80
2022-11-13T02:08:31.360Z,4.70
2022-11-13T02:10:59.732Z,3.63
2022-11-13T02:13:30.403Z,4.33
2022-11-13T02:16:00.308Z,3.97
2022-11-13T02:18:29.564Z,5.30
2022-11-13T02:21:03.821Z,6.90
2022-11-13T02:23:36.794Z,4.47
2022-11-13T02:26:06.727Z,4.93
2022-11-13T02:28:34.972Z,8.50
2022-11-13T02:31:08.283Z,4.30
2022-11-13T02:33:36.512Z,2.93
2022-11-13T02:36:06.294Z,4.30
2022-11-13T02:38:34.985Z,4.27
2022-11-13T02:41:03.257Z,4.77
2022-11-13T02:43:32.871Z,5.40
2022-11-13T02:46:01.126Z,4.70
2022-11-13T02:48:30.702Z,5.20
2022-11-13T02:50:59.142Z,4.13
2022-11-13T02:53:27.687Z,3.47
2022-11-13T02:55:55.866Z,3.83
2022-11-13T02:58:24.055Z,5.00
2022-11-13T03:00:53.699Z,3.40
2022-11-13T03:03:48.157Z,3.73
2022-11-13T03:06:11.236Z,4.00
2022-11-13T03:08:40.711Z,3.60
2022-11-13T03:11:09.834Z,3.73
2022-11-13T03:13:38.491Z,2.83
2022-11-13T03:16:10.256Z,3.70
2022-11-13T03:18:38.458Z,4.80
2022-11-13T03:21:11.552Z,4.67
2022-11-13T03:23:40.129Z,4.03
2022-11-13T03:26:09.141Z,3.83
2022-11-13T03:28:37.656Z,3.90
2022-11-13T03:31:06.472Z,2.90
2022-11-13T03:33:36.030Z,3.87
2022-11-13T03:36:04.316Z,4.03
2022-11-13T03:38:32.984Z,4.27
2022-11-13T03:41:01.169Z,4.00
2022-11-13T03:43:29.382Z,4.50
2022-11-13T03:45:57.583Z,5.17
2022-11-13T03:48:26.051Z,4.87
2022-11-13T03:50:57.774Z,3.97
2022-11-13T03:53:29.316Z,5.53
2022-11-13T03:55:57.544Z,3.23
2022-11-13T03:58:26.093Z,3.57
2022-11-13T04:00:55.086Z,4.83
2022-11-13T04:03:23.696Z,2.47
2022-11-13T04:05:52.147Z,2.87
2022-11-13T04:08:21.723Z,3.13
2022-11-13T04:10:49.976Z,3.23
2022-11-13T04:13:18.185Z,4.40
2022-11-13T04:15:46.572Z,3.67
2022-11-13T04:18:14.796Z,3.40
2022-11-13T04:20:43.017Z,3.30
2022-11-13T04:23:12.642Z,3.90
2022-11-13T04:25:42.419Z,3.63
2022-11-13T04:28:10.985Z,3.00
2022-11-13T04:30:39.315Z,3.07
2022-11-13T04:33:07.600Z,3.53
2022-11-13T04:35:35.851Z,2.70
2022-11-13T04:38:04.112Z,4.27
2022-11-13T04:40:32.324Z,3.17
2022-11-13T04:43:00.904Z,3.17
2022-11-13T04:45:29.185Z,3.33
2022-11-13T04:47:57.491Z,3.57
2022-11-13T04:50:25.908Z,4.20
2022-11-13T04:52:54.143Z,3.43
2022-11-13T04:55:22.319Z,3.80
2022-11-13T04:57:51.722Z,4.00
2022-11-13T05:00:22.593Z,3.90
2022-11-13T05:02:50.831Z,3.37
2022-11-13T05:05:19.365Z,2.73
2022-11-13T05:07:47.608Z,5.50
2022-11-13T05:10:15.879Z,3.57
2022-11-13T05:12:44.070Z,4.47
2022-11-13T05:15:12.374Z,2.63
2022-11-13T05:17:41.944Z,3.87
2022-11-13T05:20:10.893Z,6.13
2022-11-13T05:22:39.265Z,4.10
2022-11-13T05:25:07.746Z,3.27
2022-11-13T05:27:36.119Z,4.13
2022-11-13T05:30:04.551Z,4.87
2022-11-13T05:32:33.738Z,4.33
2022-11-13T05:35:03.328Z,4.67
2022-11-13T05:37:31.531Z,3.53
2022-11-13T05:39:59.742Z,4.07
2022-11-13T05:42:28.270Z,3.83
2022-11-13T05:44:57.533Z,3.50
2022-11-13T05:47:25.779Z,3.40
2022-11-13T05:49:53.999Z,2.30
2022-11-13T05:52:23.625Z,3.03
2022-11-13T05:54:52.044Z,3.07
2022-11-13T05:57:23.464Z,3.17
2022-11-13T05:59:51.852Z,3.47
2022-11-13T06:02:20.124Z,2.73
2022-11-13T06:04:51.641Z,3.33
2022-11-13T06:07:20.014Z,4.10
2022-11-13T06:09:49.631Z,3.10
2022-11-13T06:12:18.879Z,3.17
2022-11-13T06:14:47.221Z,3.10
2022-11-13T06:17:15.460Z,3.63
2022-11-13T06:19:46.360Z,5.40
2022-11-13T06:22:14.629Z,3.50
2022-11-13T06:24:43.242Z,2.57
2022-11-13T06:27:12.872Z,2.67
2022-11-13T06:29:41.087Z,2.67
2022-11-13T06:32:09.287Z,3.00
2022-11-13T06:34:38.750Z,3.40
2022-11-13T06:37:06.934Z,3.57
2022-11-13T06:39:35.117Z,4.10
2022-11-13T06:42:03.371Z,3.90
2022-11-13T06:44:32.912Z,4.20
2022-11-13T06:47:02.214Z,4.90
2022-11-13T06:49:30.439Z,3.47
2022-11-13T06:51:58.652Z,4.23
2022-11-13T06:54:27.654Z,4.20
2022-11-13T06:56:55.856Z,4.87
2022-11-13T06:59:24.081Z,4.03
2022-11-13T07:01:53.661Z,5.03
2022-11-13T07:04:22.257Z,7.60
2022-11-13T07:06:50.570Z,6.50
2022-11-13T07:09:20.832Z,6.23
2022-11-13T07:11:49.041Z,4.60
2022-11-13T07:14:17.491Z,5.60
2022-11-13T07:17:08.069Z,7.10
2022-11-13T07:19:35.527Z,4.33
2022-11-13T07:22:05.920Z,5.50
2022-11-13T07:24:34.179Z,5.87
2022-11-13T07:27:02.367Z,4.83
2022-11-13T07:29:30.619Z,4.37
2022-11-13T07:31:58.881Z,4.77
2022-11-13T07:34:27.280Z,6.30
2022-11-13T07:36:56.821Z,6.70
2022-11-13T07:39:25.037Z,5.30
2022-11-13T07:41:53.240Z,6.50
2022-11-13T07:44:48.089Z,4.40
2022-11-13T07:47:09.649Z,5.60
2022-11-13T07:49:38.199Z,5.73
2022-11-13T07:52:08.319Z,4.10
2022-11-13T07:54:36.623Z,4.23
2022-11-13T07:57:04.919Z,4.00
2022-11-13T07:59:33.117Z,5.30
2022-11-13T08:02:01.300Z,5.67
2022-11-13T08:04:29.595Z,5.23
2022-11-13T08:06:57.845Z,6.53
2022-11-13T08:09:27.484Z,5.00
2022-11-13T08:11:55.877Z,6.17
2022-11-13T08:14:24.060Z,5.47
2022-11-13T08:16:52.236Z,4.93
2022-11-13T08:19:20.433Z,5.10
2022-11-13T08:21:48.603Z,5.33
2022-11-13T08:24:16.971Z,6.87
2022-11-13T08:26:46.486Z,6.17
2022-11-13T08:29:14.726Z,5.87
2022-11-13T08:31:44.415Z,7.20
2022-11-13T08:34:12.620Z,5.00
2022-11-13T08:36:40.794Z,6.57
2022-11-13T08:39:10.473Z,5.30
2022-11-13T08:41:38.703Z,6.50
2022-11-13T08:44:08.931Z,5.50
2022-11-13T08:46:37.337Z,7.50
2022-11-13T08:49:05.799Z,5.60
2022-11-13T08:51:34.026Z,5.90
2022-11-13T08:54:03.819Z,7.03
2022-11-13T08:56:32.125Z,5.73
2022-11-13T08:59:00.321Z,5.13
2022-11-13T09:01:29.998Z,5.20
2022-11-13T09:03:59.103Z,3.93
2022-11-13T09:06:27.362Z,4.40
2022-11-13T09:08:55.635Z,3.40
2022-11-13T09:11:28.107Z,3.43
2022-11-13T09:13:57.560Z,4.20
2022-11-13T09:16:25.805Z,3.90
2022-11-13T09:18:56.109Z,3.77
2022-11-13T09:21:24.725Z,4.23
2022-11-13T09:23:53.076Z,4.70
2022-11-13T09:26:21.323Z,3.03
2022-11-13T09:28:49.873Z,5.03
2022-11-13T09:31:18.225Z,4.67
2022-11-13T09:33:46.425Z,4.53
2022-11-13T09:36:17.379Z,4.20
2022-11-13T09:38:45.715Z,4.33
2022-11-13T09:41:15.155Z,3.60
2022-11-13T09:43:45.413Z,4.50
2022-11-13T09:46:17.792Z,4.00
2022-11-13T09:48:48.785Z,2.90
2022-11-13T09:51:20.210Z,3.80
2022-11-13T09:53:48.757Z,3.70
2022-11-13T09:56:20.890Z,3.27
2022-11-13T09:58:51.396Z,3.23
2022-11-13T10:01:27.902Z,4.33
2022-11-13T10:04:03.247Z,3.33
2022-11-13T10:06:39.017Z,6.37
2022-11-13T10:09:12.874Z,6.90
2022-11-13T10:11:42.584Z,4.40
2022-11-13T10:14:14.634Z,4.00
2022-11-13T10:16:45.335Z,5.60
2022-11-13T10:19:16.650Z,3.80
2022-11-13T10:21:52.270Z,4.20
2022-11-13T10:24:27.339Z,2.90
2022-11-13T10:26:56.996Z,4.50
2022-11-13T10:29:25.590Z,5.20
2022-11-13T10:31:55.225Z,4.60
2022-11-13T10:34:23.770Z,4.13
2022-11-13T10:37:14.140Z,8.50
2022-11-13T10:39:45.885Z,4.97
2022-11-13T10:42:24.247Z,4.90
2022-11-13T10:44:56.653Z,3.97
2022-11-13T10:50:20.424Z,4.67
2022-11-13T10:52:50.669Z,4.10
2022-11-13T10:55:23.927Z,4.00
2022-11-13T10:57:58.839Z,4.10
2022-11-13T11:00:28.599Z,4.67
2022-11-13T11:02:56.849Z,4.77
2022-11-13T11:05:25.706Z,4.10
2022-11-13T11:07:55.809Z,5.37
2022-11-13T11:10:27.532Z,4.80
2022-11-13T11:12:57.199Z,5.00
2022-11-13T11:15:27.463Z,4.43
2022-11-13T11:17:58.632Z,6.10
2022-11-13T11:20:30.693Z,4.70
2022-11-13T11:23:04.460Z,4.03
2022-11-13T11:25:39.108Z,4.63
2022-11-13T11:28:09.422Z,3.73
2022-11-13T11:30:42.966Z,4.17
2022-11-13T11:33:14.387Z,4.93
2022-11-13T11:35:45.754Z,4.87
2022-11-13T11:38:18.222Z,5.10
2022-11-13T11:40:48.335Z,4.30
2022-11-13T11:43:19.804Z,5.37
2022-11-13T11:45:48.671Z,4.80
2022-11-13T11:48:18.164Z,3.83
2022-11-13T11:50:50.526Z,4.10
2022-11-13T11:53:26.094Z,5.97
2022-11-13T11:56:02.097Z,4.43
2022-11-13T11:58:37.558Z,5.47
2022-11-13T12:01:07.747Z,3.97
2022-11-13T12:03:59.969Z,7.70
2022-11-13T12:06:34.455Z,4.57
2022-11-13T12:09:10.000Z,5.00
2022-11-13T12:11:40.237Z,3.63
2022-11-13T12:14:11.616Z,5.47
2022-11-13T12:16:42.614Z,5.90
2022-11-13T12:19:16.954Z,5.40
2022-11-13T12:21:52.211Z,5.23
2022-11-13T12:24:37.753Z,5.83
2022-11-13T12:27:12.995Z,4.80
2022-11-13T12:29:46.738Z,5.70
2022-11-13T12:32:20.913Z,4.80
2022-11-13T12:34:50.695Z,4.63
2022-11-13T12:37:21.955Z,5.13
2022-11-13T12:39:55.826Z,5.13
2022-11-13T12:42:28.516Z,5.13
2022-11-13T12:45:01.015Z,4.80
2022-11-13T12:47:29.342Z,3.63
2022-11-13T12:50:01.791Z,4.23
2022-11-13T12:52:30.137Z,3.13
2022-11-13T12:55:25.809Z,4.47
2022-11-13T12:57:54.115Z,3.60
2022-11-13T13:00:24.751Z,4.37
2022-11-13T13:02:56.821Z,5.73
2022-11-13T13:05:28.137Z,8.90
2022-11-13T13:08:12.560Z,7.43
2022-11-13T13:10:51.016Z,4.80
2022-11-13T13:13:24.392Z,5.43
2022-11-13T13:15:56.722Z,5.87
2022-11-13T13:18:31.886Z,3.77
2022-11-13T13:21:03.080Z,3.80
2022-11-13T13:23:32.301Z,4.40
2022-11-13T13:26:06.199Z,6.80
2022-11-13T13:28:35.054Z,3.93
2022-11-13T13:31:06.450Z,3.87
2022-11-13T13:33:39.540Z,5.13
2022-11-13T13:36:13.544Z,4.30
2022-11-13T13:38:50.902Z,4.03
2022-11-13T13:41:26.880Z,5.07
2022-11-13T13:43:59.554Z,4.10
2022-11-13T13:46:28.901Z,3.63
2022-11-13T13:48:58.501Z,4.57
2022-11-13T13:51:30.087Z,5.40
2022-11-13T13:53:59.020Z,4.33
2022-11-13T13:56:28.706Z,7.27
2022-11-13T13:58:56.983Z,3.83
2022-11-13T14:01:29.625Z,3.77
2022-11-13T14:04:08.140Z,4.20
2022-11-13T14:06:36.352Z,4.50
2022-11-13T14:09:11.230Z,4.00
2022-11-13T14:11:41.212Z,4.40
2022-11-13T14:14:09.941Z,3.60
2022-11-13T14:16:48.048Z,3.77
2022-11-13T14:19:16.682Z,4.10
2022-11-13T14:21:46.514Z,4.20
2022-11-13T14:24:18.575Z,4.90
2022-11-13T14:26:48.330Z,3.90
2022-11-13T14:29:23.357Z,4.83
2022-11-13T14:31:52.700Z,4.00
2022-11-13T14:34:22.293Z,5.37
2022-11-13T14:36:50.878Z,4.03
2022-11-13T14:39:23.948Z,3.80
2022-11-13T14:41:55.579Z,5.23
2022-11-13T14:44:32.141Z,3.03
2022-11-13T14:47:01.945Z,4.33
2022-11-13T14:49:31.271Z,4.47
2022-11-13T14:52:01.014Z,4.20
2022-11-13T14:54:53.188Z,4.03
2022-11-13T14:57:20.948Z,8.77
2022-11-13T14:59:50.256Z,4.73
2022-11-13T15:02:20.207Z,3.30
2022-11-13T15:04:48.432Z,4.77
2022-11-13T15:07:29.425Z,4.03
2022-11-13T15:09:58.048Z,4.20
2022-11-13T15:12:27.933Z,3.70
2022-11-13T15:14:56.174Z,5.60
2022-11-13T15:17:24.845Z,3.97
2022-11-13T15:19:54.432Z,4.93
2022-11-13T15:22:27.578Z,4.00
2022-11-13T15:24:56.454Z,5.07
2022-11-13T15:27:24.663Z,5.73
2022-11-13T15:29:54.505Z,5.13
2022-11-13T15:32:23.141Z,4.80
2022-11-13T15:34:51.407Z,4.53
2022-11-13T15:37:19.661Z,4.30
2022-11-13T15:39:48.026Z,3.70
2022-11-13T15:42:18.404Z,4.13
2022-11-13T15:44:46.899Z,4.20
2022-11-13T15:47:26.396Z,5.17
2022-11-13T15:50:12.924Z,4.80
2022-11-13T15:52:42.879Z,6.10
2022-11-13T15:55:19.090Z,5.03
2022-11-13T15:57:47.452Z,5.20
2022-11-13T16:00:17.050Z,3.90
2022-11-13T16:02:50.277Z,4.27
2022-11-13T16:05:18.811Z,3.90
2022-11-13T16:07:47.001Z,5.47
2022-11-13T16:10:15.982Z,6.50
2022-11-13T16:12:45.802Z,10.40
2022-11-13T16:15:15.635Z,9.30
2022-11-13T16:17:45.892Z,9.53
2022-11-13T16:20:16.682Z,7.23
2022-11-13T16:22:45.368Z,9.60
2022-11-13T16:25:14.925Z,7.30
2022-11-13T16:27:43.430Z,7.83
2022-11-13T16:30:15.346Z,7.63
2022-11-13T16:32:43.648Z,7.17
2022-11-13T16:35:16.938Z,8.10
2022-11-13T16:37:46.273Z,11.03
2022-11-13T16:40:18.924Z,5.60
2022-11-13T16:42:47.456Z,6.30
2022-11-13T16:45:15.774Z,8.00
2022-11-13T16:47:44.528Z,5.30
2022-11-13T16:50:18.079Z,7.10
2022-11-13T16:52:46.328Z,6.33
2022-11-13T16:55:14.873Z,4.77
2022-11-13T16:57:43.302Z,6.53
2022-11-13T17:00:16.054Z,6.57
2022-11-13T17:02:45.100Z,8.40
2022-11-13T17:05:15.644Z,5.97
2022-11-13T17:07:45.536Z,8.47
2022-11-13T17:10:30.871Z,6.00
2022-11-13T17:12:59.896Z,7.60
2022-11-13T17:15:28.153Z,6.50
2022-11-13T17:17:58.263Z,9.10
2022-11-13T17:20:26.747Z,6.27
2022-11-13T17:22:57.354Z,5.57
2022-11-13T17:25:27.893Z,6.43
2022-11-13T17:27:56.187Z,4.40
2022-11-13T17:30:24.416Z,7.23
2022-11-13T17:32:52.700Z,5.77
2022-11-13T17:35:20.957Z,6.47
2022-11-13T17:37:49.195Z,4.80
2022-11-13T17:40:19.119Z,5.20
2022-11-13T17:42:49.412Z,5.60
2022-11-13T17:45:17.768Z,7.57
2022-11-13T17:47:46.180Z,6.90
2022-11-13T17:50:15.074Z,8.80
2022-11-13T17:52:44.556Z,6.77
2022-11-13T17:55:14.005Z,7.03
2022-11-13T17:57:44.373Z,4.93
2022-11-13T18:00:13.089Z,5.20
2022-11-13T18:02:41.318Z,5.13
2022-11-13T18:05:10.165Z,5.73
2022-11-13T18:07:40.016Z,7.93
2022-11-13T18:10:10.826Z,9.73
2022-11-13T18:12:40.197Z,13.53
2022-11-13T18:15:11.506Z,19.00
2022-11-13T18:17:40.009Z,17.37
2022-11-13T18:20:08.774Z,15.80
2022-11-13T18:22:37.089Z,13.63
2022-11-13T18:25:08.022Z,15.50
2022-11-13T18:27:36.321Z,10.43
2022-11-13T18:30:04.526Z,12.63
2022-11-13T18:32:34.157Z,11.27
2022-11-13T18:35:03.802Z,9.87
2022-11-13T18:37:32.039Z,12.87
2022-11-13T18:40:01.845Z,16.77
2022-11-13T18:42:30.316Z,19.73
2022-11-13T18:45:01.741Z,21.40
2022-11-13T18:47:35.136Z,20.57
2022-11-13T18:50:03.393Z,18.03
2022-11-13T18:52:33.895Z,16.10
2022-11-13T18:55:02.158Z,11.23
2022-11-13T18:57:30.421Z,10.50
2022-11-13T18:59:58.682Z,12.30
2022-11-13T19:02:27.585Z,12.83
2022-11-13T19:04:57.274Z,16.40
2022-11-13T19:07:25.632Z,17.23
2022-11-13T19:09:54.982Z,15.80
2022-11-13T19:12:23.367Z,11.90
2022-11-13T19:14:51.600Z,10.80
2022-11-13T19:17:19.821Z,16.60
2022-11-13T19:19:48.053Z,10.30
2022-11-13T19:22:18.689Z,11.60
2022-11-13T19:24:46.908Z,10.70
2022-11-13T19:27:15.124Z,12.30
2022-11-13T19:29:43.336Z,11.70
2022-11-13T19:32:11.782Z,13.07
2022-11-13T19:34:45.176Z,14.57
2022-11-13T19:37:19.102Z,13.57
2022-11-13T19:39:50.148Z,13.70
2022-11-13T19:42:18.405Z,10.30
2022-11-13T19:44:46.675Z,12.60
2022-11-13T19:47:15.130Z,9.90
2022-11-13T19:49:43.672Z,12.07
2022-11-13T19:52:11.884Z,10.57
2022-11-13T19:54:40.215Z,9.93
2022-11-13T19:57:10.058Z,10.50
2022-11-13T19:59:39.413Z,11.20
2022-11-13T20:02:08.030Z,11.20
2022-11-13T20:04:36.333Z,8.50
2022-11-13T20:07:06.821Z,7.80
2022-11-13T20:09:35.223Z,8.57
2022-11-13T20:12:03.472Z,11.90
2022-11-13T20:14:38.213Z,7.83
2022-11-13T20:17:09.956Z,6.13
2022-11-13T20:19:38.325Z,7.03
2022-11-13T20:22:06.617Z,8.13
2022-11-13T20:24:34.829Z,6.53
2022-11-13T20:27:03.274Z,6.60
2022-11-13T20:29:35.307Z,7.70
2022-11-13T20:32:03.521Z,6.97
2022-11-13T20:34:31.771Z,5.17
2022-11-13T20:37:01.392Z,5.70
2022-11-13T20:39:29.595Z,5.63
2022-11-13T20:41:58.087Z,5.50
2022-11-13T20:44:26.921Z,6.80
2022-11-13T20:46:59.096Z,8.90
2022-11-13T20:49:27.312Z,7.53
2022-11-13T20:51:57.293Z,7.57
2022-11-13T20:54:25.738Z,5.00
2022-11-13T20:56:54.170Z,5.03
2022-11-13T20:59:22.562Z,5.00
2022-11-13T21:01:50.891Z,4.83
2022-11-13T21:04:20.694Z,5.10
2022-11-13T21:06:52.322Z,5.10
2022-11-13T21:09:22.037Z,6.93
2022-11-13T21:11:50.379Z,5.37
2022-11-13T21:14:18.635Z,5.77
2022-11-13T21:16:46.936Z,4.87
2022-11-13T21:19:15.318Z,7.33
2022-11-13T21:21:44.922Z,8.00
2022-11-13T21:24:13.266Z,7.77
2022-11-13T21:26:41.482Z,11.77
2022-11-13T21:29:10.826Z,10.60
2022-11-13T21:31:40.088Z,12.47
2022-11-13T21:34:10.849Z,12.80
2022-11-13T21:36:39.141Z,11.17
2022-11-13T21:39:09.908Z,14.07
2022-11-13T21:41:38.185Z,11.67
2022-11-13T21:44:08.645Z,13.20
2022-11-13T21:46:37.666Z,10.17
2022-11-13T21:49:07.685Z,11.30
2022-11-13T21:51:37.003Z,10.83
2022-11-13T21:54:05.449Z,10.70
2022-11-13T21:56:37.158Z,12.83
2022-11-13T21:59:05.697Z,10.67
2022-11-13T22:01:38.637Z,8.20
2022-11-13T22:04:07.075Z,9.83
2022-11-13T22:06:36.829Z,11.20
2022-11-13T22:09:07.190Z,9.93
2022-11-13T22:11:37.237Z,9.50
2022-11-13T22:14:05.929Z,13.40
2022-11-13T22:16:35.064Z,11.60
2022-11-13T22:19:04.447Z,11.30
2022-11-13T22:21:33.057Z,12.33
2022-11-13T22:24:01.725Z,12.97
2022-11-13T22:26:31.594Z,10.33
2022-11-13T22:29:01.926Z,8.07
2022-11-13T22:31:30.674Z,7.97
2022-11-13T22:34:00.460Z,13.37
2022-11-13T22:36:29.750Z,13.33
2022-11-13T22:38:58.393Z,10.87
2022-11-13T22:41:28.634Z,9.17
2022-11-13T22:43:59.637Z,12.37
2022-11-13T22:46:30.242Z,11.63
2022-11-13T22:48:59.669Z,10.70
2022-11-13T22:51:28.676Z,11.80
2022-11-13T22:53:57.860Z,11.93
2022-11-13T22:56:27.259Z,12.53
2022-11-13T22:58:56.022Z,13.77
2022-11-13T23:01:25.493Z,10.80
2022-11-13T23:03:56.709Z,13.90
2022-11-13T23:06:26.302Z,13.17
2022-11-13T23:08:54.961Z,10.87
2022-11-13T23:11:24.489Z,13.63
2022-11-13T23:13:53.791Z,12.60
2022-11-13T23:16:22.705Z,8.97
2022-11-13T23:18:51.587Z,8.80
2022-11-13T23:21:21.352Z,9.17
2022-11-13T23:23:50.735Z,9.83
2022-11-13T23:26:19.246Z,10.57
2022-11-13T23:28:47.927Z,9.57
2022-11-13T23:31:16.161Z,13.50
2022-11-13T23:33:45.628Z,9.53
2022-11-13T23:36:14.326Z,10.73
2022-11-13T23:38:43.879Z,10.37
2022-11-13T23:41:12.897Z,8.97
2022-11-13T23:46:29.879Z,10.90
2022-11-13T23:48:58.508Z,8.23
2022-11-13T23:51:27.891Z,8.47
2022-11-13T23:53:57.547Z,7.47
2022-11-13T23:56:25.749Z,12.47
2022-11-13T23:58:55.202Z,8.53
